Burnsville, MN

5:56 AM CDT on July 05, 2015 (GMT -0500)
East Bloomington | | Change Station
CLOSE
Current Station
Personal Weather Station
Location: Bloomington, MN
Elevation: 840 ft
Nearby Weather Stations

Elev 840 ft 44.84 °N, 93.25 °W | Updated 3 seconds ago

Clear
Clear
66.0 °F
Feels Like 66.0 °F
N
1.0
Wind Variable Wind from SE
Gusts 2.0 mph

Today
High -- | Low -- °F
--% Chance of Precip.
Yesterday
High -- | Low -- °F
Precip. -- in
5:33 AM 9:01 PM
Waning Gibbous, 85% visible
Pressure 29.94 in
Visibility 9.0 miles
Clouds Few 25000 ft
Dew Point 61 °F
Humidity 84%
Rainfall 0.00 in
Snow Depth Not available.
UV 0 out of 12
Pollen 4.20 out of 12
Air Quality Not available.
Flu Activity Not available.
METAR KMSP 051053Z 16007KT 9SM FEW250 19/15 A2995 RMK AO2 SLP136 T01940150

More Conditions Fewer Conditions

Pressure 29.94 in
Visibility 9.0 miles
Clouds Few 25000 ft
Dew Point 61 °F
Humidity 84%
Rainfall 0.00 in
Snow Depth Not available.
UV 0 out of 12
Pollen 4.20 out of 12
Air Quality Not available.
Flu Activity Not available.
METAR KMSP 051053Z 16007KT 9SM FEW250 19/15 A2995 RMK AO2 SLP136 T01940150

More Conditions Fewer Conditions

10-Day Weather Forecast

×

Almanac

Astronomy

Jul. 05, 2015 Rise Set
Actual Time
Civil Twilight
Nautical Twilight
Astronomical Twilight
Moon
Length of Visible Light
Length of Day
Tomorrow will be .
, % of the Moon is Illuminated

Today's Extremes

State Highs State Lows

Community

WunderPhotos

Upload Photos

1,835,229 photos uploaded!

WunderBlogs® & News

Nearby

Air Quality

  Air Quality AQ Index Pollutant
Not available.

Snow Depth

Station Depth Elevation

Earthquake Activity

City Distance Mag. Time & Date
Minimum magnitude displayed is 2.5.

Coastal Water Temperatures

Place Temperature

Stations

Nearby Weather Stations

Station Location Temp. Windchill Dew Point Humidity Wind Precip. Elev Updated Type